Time;durP1;ratioP1;P1;durP2;ratioP2;P2;SDS_P1;SDS_P2;PMS_P1;PMS_P2;Temp;Humidity;BMP_temperature;BMP_pressure;BME280_temperature;BME280_humidity;BME280_pressure;Samples;Min_cycle;Max_cycle;Signal;HPM_P1;HPM_P2
2022/11/18 00:00:22;;;;;;;24.70;15.30;;;;;;;-0.02;87.47;97503.45;86684;1288;98561;-72
2022/11/18 00:02:33;;;;;;;23.30;16.70;;;;;;;-0.03;87.39;97506.06;86842;1289;23308;-73
2022/11/18 00:04:35;;;;;;;22.50;16.10;;;;;;;-0.03;87.53;97506.39;86729;1289;24012;-73
2022/11/18 00:06:40;;;;;;;19.90;14.30;;;;;;;-0.03;87.58;97504.33;86759;1286;99668;-72
2022/11/18 00:08:41;;;;;;;25.80;15.20;;;;;;;-0.04;87.34;97505.90;86799;1285;22890;-72
2022/11/18 00:10:43;;;;;;;20.80;13.70;;;;;;;-0.05;87.30;97503.70;86907;1281;24294;-73
2022/11/18 00:15:06;;;;;;;19.10;13.30;;;;;;;-0.05;87.51;97503.38;86739;1286;25329;-73
2022/11/18 00:17:07;;;;;;;16.80;13.50;;;;;;;-0.05;87.34;97502.17;86574;1287;98569;-73
2022/11/18 00:19:09;;;;;;;17.50;12.10;;;;;;;-0.19;87.32;97472.88;86552;1289;22496;-73
2022/11/18 00:21:11;;;;;;;20.10;14.10;;;;;;;-0.06;87.28;97487.16;86537;1288;22501;-73
2022/11/18 00:23:13;;;;;;;18.80;12.90;;;;;;;-0.06;87.45;97491.31;86405;1289;100199;-74
2022/11/18 00:25:15;;;;;;;20.20;13.30;;;;;;;-0.07;87.51;97492.56;86452;1291;24639;-71
2022/11/18 00:27:17;;;;;;;24.40;11.00;;;;;;;-0.06;87.37;97500.30;86651;1289;24219;-72
2022/11/18 00:29:20;;;;;;;15.80;11.60;;;;;;;-0.06;87.16;97497.52;86434;1287;100262;-73
2022/11/18 00:31:21;;;;;;;18.90;12.70;;;;;;;-0.06;87.27;97500.80;86500;1291;22518;-73
2022/11/18 00:33:23;;;;;;;18.70;13.10;;;;;;;-0.11;87.25;97496.63;86401;1304;22530;-74
2022/11/18 00:35:25;;;;;;;20.90;13.50;;;;;;;-0.07;87.22;97505.84;86650;1285;98980;-73
2022/11/18 00:37:27;;;;;;;17.00;12.80;;;;;;;-0.07;87.31;97505.67;86562;1296;22471;-72
2022/11/18 00:39:28;;;;;;;17.40;12.50;;;;;;;-0.06;87.14;97502.02;86533;1296;22494;-71
2022/11/18 00:43:51;;;;;;;19.80;14.20;;;;;;;-0.05;87.31;97503.20;86746;1294;24253;-72
2022/11/18 00:45:53;;;;;;;17.00;13.60;;;;;;;-0.03;87.36;97501.07;86605;1287;22525;-74
2022/11/18 00:47:55;;;;;;;22.00;13.00;;;;;;;-0.04;87.40;97502.80;86528;1288;99848;-72
2022/11/18 00:49:56;;;;;;;20.00;13.90;;;;;;;-0.02;87.18;97505.35;86701;1288;22539;-73
2022/11/18 00:51:58;;;;;;;18.60;14.00;;;;;;;-0.03;87.39;97505.55;86689;1288;22442;-75
2022/11/18 00:54:00;;;;;;;22.00;15.20;;;;;;;-0.02;87.17;97507.60;86466;1288;99491;-73
2022/11/18 00:56:03;;;;;;;21.20;14.60;;;;;;;-0.02;87.29;97507.06;86641;1287;22677;-73
2022/11/18 00:58:05;;;;;;;17.60;13.30;;;;;;;-0.01;87.37;97506.70;86662;1278;22510;-71
2022/11/18 01:00:08;;;;;;;18.30;13.00;;;;;;;-0.10;87.30;97494.03;86422;1287;99091;-73
2022/11/18 01:02:10;;;;;;;20.50;14.00;;;;;;;-0.02;87.28;97505.85;86477;1288;24271;-72
2022/11/18 01:04:12;;;;;;;24.70;13.50;;;;;;;-0.02;87.32;97504.13;86549;1287;22490;-73
2022/11/18 01:06:14;;;;;;;18.20;13.50;;;;;;;-0.02;87.19;97498.45;86538;1287;99799;-72
2022/11/18 01:08:17;;;;;;;20.80;15.20;;;;;;;-0.03;87.16;97500.39;86757;1286;23965;-72
2022/11/18 01:10:20;;;;;;;19.80;14.90;;;;;;;-0.03;87.26;97496.23;86646;1289;23365;-71
2022/11/18 01:14:43;;;;;;;17.50;14.40;;;;;;;-0.00;87.12;97495.63;86740;1288;22519;-74
2022/11/18 01:16:49;;;;;;;21.00;14.60;;;;;;;-0.01;87.03;97493.41;86721;1285;22603;-73
2022/11/18 01:18:52;;;;;;;17.80;14.00;;;;;;;-0.01;87.32;97488.93;86493;1298;99576;-74
2022/11/18 01:20:59;;;;;;;22.30;15.10;;;;;;;-0.00;87.40;97488.55;86679;1280;22940;-73
2022/11/18 01:23:01;;;;;;;16.60;12.90;;;;;;;0.02;87.39;97494.90;86665;1285;100112;-73
2022/11/18 01:25:03;;;;;;;19.20;14.10;;;;;;;0.01;87.03;97490.41;86800;1284;22515;-74
2022/11/18 01:27:05;;;;;;;18.90;13.20;;;;;;;0.02;87.25;97486.58;86882;1284;25116;-73
2022/11/18 01:29:07;;;;;;;19.00;14.20;;;;;;;0.01;87.21;97480.59;86588;1281;100149;-71
2022/11/18 01:31:15;;;;;;;19.80;14.10;;;;;;;0.01;87.21;97475.06;86472;1287;22463;-73
2022/11/18 01:33:17;;;;;;;19.60;14.20;;;;;;;0.01;87.14;97473.84;86633;1287;22458;-72
2022/11/18 01:35:19;;;;;;;19.80;13.10;;;;;;;0.00;87.12;97473.69;86526;1288;100073;-72
2022/11/18 01:37:21;;;;;;;16.20;12.30;;;;;;;-0.01;86.94;97476.66;86638;1287;24210;-72
2022/11/18 01:39:24;;;;;;;17.30;13.70;;;;;;;-0.02;87.04;97482.03;86655;1281;22494;-73
2022/11/18 01:41:26;;;;;;;15.10;12.00;;;;;;;-0.03;87.27;97482.75;86424;1281;100227;-73
2022/11/18 01:43:46;;;;;;;17.00;12.60;;;;;;;-0.03;87.05;97481.02;86372;1285;24404;-72
2022/11/18 01:45:50;;;;;;;20.30;13.20;;;;;;;-0.02;87.22;97479.96;86574;1286;22546;-72
2022/11/18 01:48:04;;;;;;;17.90;12.90;;;;;;;-0.01;87.11;97482.20;86545;1289;100063;-72
2022/11/18 01:50:06;;;;;;;20.90;12.80;;;;;;;-0.04;87.22;97486.76;86861;1282;24312;-73
2022/11/18 01:52:09;;;;;;;16.00;12.70;;;;;;;-0.06;87.20;97486.30;86516;1289;22704;-72
2022/11/18 01:54:27;;;;;;;13.50;10.90;;;;;;;-0.08;86.96;97480.48;86622;1286;99658;-72
2022/11/18 01:56:36;;;;;;;18.40;12.20;;;;;;;-0.12;87.07;97474.58;86388;1298;26480;-73
2022/11/18 01:58:48;;;;;;;17.70;13.50;;;;;;;-0.12;87.11;97476.98;86488;1287;22657;-73
2022/11/18 02:00:51;;;;;;;16.70;13.00;;;;;;;-0.12;87.10;97473.02;86379;1287;98427;-72
2022/11/18 02:02:53;;;;;;;16.80;12.10;;;;;;;-0.12;87.09;97473.17;86419;1284;23700;-73
2022/11/18 02:04:56;;;;;;;15.90;11.70;;;;;;;-0.12;86.97;97468.02;86407;1281;22489;-72
2022/11/18 02:07:01;;;;;;;17.50;12.90;;;;;;;-0.13;87.05;97467.36;86490;1288;99582;-73
2022/11/18 02:09:03;;;;;;;22.60;13.90;;;;;;;-0.14;86.96;97463.06;86770;1285;22501;-73
2022/11/18 02:11:49;;;;;;;23.80;13.10;;;;;;;-0.15;86.92;97458.27;86478;1281;100741;-73
2022/11/18 02:13:32;;;;;;;19.90;13.50;;;;;;;-0.17;86.89;97450.89;86780;1285;25560;-71
2022/11/18 02:15:47;;;;;;;17.80;12.50;;;;;;;-0.18;86.86;97448.14;86663;1288;22597;-75
2022/11/18 02:18:18;;;;;;;20.90;13.80;;;;;;;-0.18;86.93;97444.52;86648;1285;99562;-72
2022/11/18 02:20:22;;;;;;;15.90;13.00;;;;;;;-0.21;86.89;97439.08;86682;1286;22578;-71
2022/11/18 02:22:42;;;;;;;21.00;13.30;;;;;;;-0.33;87.11;97424.42;86713;1284;22961;-72
2022/11/18 02:25:05;;;;;;;22.00;14.00;;;;;;;-0.19;86.85;97449.38;86470;1294;99547;-72
2022/11/18 02:27:10;;;;;;;24.10;13.90;;;;;;;-0.19;87.01;97446.11;86802;1282;23135;-73
2022/11/18 02:29:20;;;;;;;24.60;14.30;;;;;;;-0.18;87.01;97441.77;86504;1287;99679;-74
2022/11/18 02:31:32;;;;;;;27.90;14.00;;;;;;;-0.17;87.09;97435.36;86639;1288;22571;-71
2022/11/18 02:33:51;;;;;;;17.90;13.80;;;;;;;-0.15;87.04;97433.05;86642;1288;22597;-74
2022/11/18 02:36:00;;;;;;;22.60;15.40;;;;;;;-0.15;87.02;97434.95;86698;1278;99548;-71
2022/11/18 02:38:14;;;;;;;24.90;15.20;;;;;;;-0.14;87.12;97433.21;86633;1288;22462;-72
2022/11/18 02:40:24;;;;;;;21.10;15.90;;;;;;;-0.15;86.97;97429.77;86625;1281;22442;-72
2022/11/18 02:42:29;;;;;;;23.20;15.80;;;;;;;-0.16;86.98;97427.55;86574;1288;98563;-75
2022/11/18 02:44:33;;;;;;;24.40;15.20;;;;;;;-0.16;87.00;97427.23;86893;1288;22432;-72
2022/11/18 02:46:38;;;;;;;21.30;15.80;;;;;;;-0.19;87.03;97428.00;86799;1286;22693;-72
2022/11/18 02:48:48;;;;;;;25.50;16.20;;;;;;;-0.20;87.09;97436.30;86718;1295;99140;-72
2022/11/18 02:50:51;;;;;;;26.10;16.30;;;;;;;-0.21;86.95;97440.66;86537;1281;22970;-72
2022/11/18 02:52:58;;;;;;;23.40;14.80;;;;;;;-0.22;86.96;97437.90;86660;1288;22501;-71
2022/11/18 02:55:04;;;;;;;29.30;16.60;;;;;;;-0.24;87.10;97435.73;86448;1288;98602;-70
2022/11/18 02:57:07;;;;;;;25.50;17.50;;;;;;;-0.26;86.94;97431.48;86667;1295;22426;-70
2022/11/18 02:59:09;;;;;;;27.00;17.20;;;;;;;-0.32;87.10;97434.41;86447;1297;99753;-72
2022/11/18 03:01:24;;;;;;;22.80;16.50;;;;;;;-0.30;87.09;97445.23;86660;1288;23767;-73
2022/11/18 03:03:30;;;;;;;27.70;16.80;;;;;;;-0.33;87.02;97447.02;86764;1300;22419;-73
2022/11/18 03:05:47;;;;;;;24.60;15.70;;;;;;;-0.34;86.92;97449.31;86563;1288;99787;-73
2022/11/18 03:07:55;;;;;;;33.20;19.10;;;;;;;-0.36;87.06;97448.67;86432;1284;23279;-73
2022/11/18 03:10:00;;;;;;;27.60;16.70;;;;;;;-0.36;87.11;97451.10;86757;1292;23454;-71
2022/11/18 03:12:22;;;;;;;26.40;18.40;;;;;;;-0.37;87.07;97445.24;86885;1288;98602;-74
2022/11/18 03:14:33;;;;;;;25.20;17.40;;;;;;;-0.38;87.17;97444.41;86729;1281;22715;-72
2022/11/18 03:16:55;;;;;;;30.30;19.20;;;;;;;-0.39;87.11;97439.11;86592;1284;24254;-72
2022/11/18 03:19:02;;;;;;;21.20;17.10;;;;;;;-0.41;86.94;97436.55;86364;1289;98252;-72
2022/11/18 03:21:15;;;;;;;23.20;17.80;;;;;;;-0.41;87.27;97434.69;86716;1284;22581;-72
2022/11/18 03:23:23;;;;;;;25.90;18.60;;;;;;;-0.42;87.28;97426.08;86645;1285;100936;-71
2022/11/18 03:25:25;;;;;;;34.00;19.90;;;;;;;-0.44;87.03;97426.14;86636;1287;22588;-72
2022/11/18 03:27:39;;;;;;;30.90;21.00;;;;;;;-0.45;87.18;97423.77;86804;1293;24092;-72
2022/11/18 03:29:48;;;;;;;27.70;18.90;;;;;;;-0.45;87.28;97424.10;86519;1288;100488;-73
2022/11/18 03:32:11;;;;;;;33.40;21.90;;;;;;;-0.45;87.24;97416.14;86450;1281;22566;-72
2022/11/18 03:34:28;;;;;;;28.60;20.30;;;;;;;-0.45;87.51;97417.71;86651;1278;22475;-73
2022/11/18 03:36:36;;;;;;;34.10;20.50;;;;;;;-0.47;87.26;97422.23;86402;1281;98397;-73
2022/11/18 03:38:49;;;;;;;30.10;20.10;;;;;;;-0.52;87.30;97419.30;86653;1282;22484;-72
2022/11/18 03:40:57;;;;;;;30.70;19.80;;;;;;;-0.48;87.36;97429.55;86675;1288;22827;-74
2022/11/18 03:43:07;;;;;;;31.70;20.50;;;;;;;-0.49;87.40;97428.00;86595;1284;98375;-73
2022/11/18 03:45:30;;;;;;;33.50;23.20;;;;;;;-0.52;87.36;97431.70;86561;1289;24490;-74
2022/11/18 03:47:40;;;;;;;29.20;20.10;;;;;;;-0.54;87.29;97432.97;86595;1281;100061;-73
2022/11/18 03:49:50;;;;;;;37.10;23.20;;;;;;;-0.56;87.35;97431.30;86686;1289;22570;-72
2022/11/18 03:52:09;;;;;;;38.30;21.10;;;;;;;-0.56;87.36;97429.41;86622;1285;24285;-71
2022/11/18 03:54:17;;;;;;;32.40;22.80;;;;;;;-0.65;87.40;97409.65;86482;1289;98515;-72
2022/11/18 03:56:28;;;;;;;41.80;27.30;;;;;;;-0.56;87.46;97417.86;86820;1281;22779;-71
2022/11/18 03:58:39;;;;;;;37.70;22.30;;;;;;;-0.54;87.58;97416.23;86429;1283;22422;-74
2022/11/18 04:00:46;;;;;;;32.10;22.40;;;;;;;-0.53;87.47;97412.41;86467;1288;99934;-73
2022/11/18 04:02:49;;;;;;;29.80;20.40;;;;;;;-0.54;87.47;97414.33;86450;1281;22471;-72
2022/11/18 04:04:55;;;;;;;29.50;19.60;;;;;;;-0.54;87.55;97410.20;86458;1287;24236;-72
2022/11/18 04:07:19;;;;;;;33.70;21.30;;;;;;;-0.55;87.44;97409.55;86392;1281;98253;-71
2022/11/18 04:09:30;;;;;;;33.80;21.40;;;;;;;-0.56;87.64;97399.89;86586;1288;23684;-72
2022/11/18 04:14:06;;;;;;;28.90;22.00;;;;;;;-0.54;87.66;97395.88;86700;1302;23581;-73
2022/11/18 04:16:08;;;;;;;32.90;22.70;;;;;;;-0.54;87.72;97396.39;86813;1281;24323;-72
2022/11/18 04:18:12;;;;;;;33.10;22.20;;;;;;;-0.53;87.68;97397.94;86775;1281;99604;-72
2022/11/18 04:20:20;;;;;;;34.10;22.00;;;;;;;-0.58;87.59;97390.83;86723;1285;22471;-71
2022/11/18 04:22:22;;;;;;;33.40;21.30;;;;;;;-0.54;87.58;97398.45;86569;1295;22493;-72
2022/11/18 04:24:25;;;;;;;28.80;18.90;;;;;;;-0.53;87.62;97394.82;86503;1294;98624;-72
2022/11/18 04:26:26;;;;;;;30.90;20.70;;;;;;;-0.52;87.79;97398.56;86650;1285;24391;-71
2022/11/18 04:28:28;;;;;;;24.60;19.50;;;;;;;-0.51;87.84;97397.88;86477;1289;22848;-72
2022/11/18 04:30:31;;;;;;;31.00;21.10;;;;;;;-0.53;87.72;97392.21;86353;1286;98594;-72
2022/11/18 04:32:33;;;;;;;27.20;19.00;;;;;;;-0.52;87.65;97393.40;86429;1287;22429;-72
2022/11/18 04:34:35;;;;;;;31.90;19.60;;;;;;;-0.54;87.58;97395.19;86394;1288;22517;-73
2022/11/18 04:36:38;;;;;;;25.80;18.70;;;;;;;-0.57;87.66;97394.91;86717;1281;99759;-72
2022/11/18 04:38:40;;;;;;;24.40;18.30;;;;;;;-0.57;87.64;97398.23;86575;1281;25933;-73
2022/11/18 04:40:56;;;;;;;25.00;18.60;;;;;;;-0.59;87.69;97400.67;86644;1281;23328;-74
2022/11/18 04:43:02;;;;;;;24.50;18.80;;;;;;;-0.60;87.69;97399.34;86706;1287;98356;-75
2022/11/18 04:45:06;;;;;;;26.90;18.00;;;;;;;-0.60;87.65;97399.14;86669;1287;26727;-72
2022/11/18 04:47:09;;;;;;;29.90;18.20;;;;;;;-0.58;87.66;97398.58;86597;1289;100062;-74
2022/11/18 04:49:13;;;;;;;29.20;18.30;;;;;;;-0.56;87.82;97394.38;86773;1285;22469;-72
2022/11/18 04:51:15;;;;;;;25.00;18.40;;;;;;;-0.54;87.74;97393.65;86460;1288;23698;-73
2022/11/18 04:53:17;;;;;;;28.50;19.20;;;;;;;-0.54;87.64;97389.33;86464;1281;99927;-72
2022/11/18 04:55:19;;;;;;;29.50;17.20;;;;;;;-0.54;87.70;97385.88;86563;1281;23887;-72
2022/11/18 04:57:21;;;;;;;28.80;18.90;;;;;;;-0.54;87.75;97380.16;86593;1280;22501;-73
2022/11/18 04:59:25;;;;;;;28.80;19.00;;;;;;;-0.53;87.76;97384.63;86409;1281;99667;-74
2022/11/18 05:01:28;;;;;;;24.60;17.80;;;;;;;-0.53;87.74;97387.06;86351;1294;22787;-75
2022/11/18 05:03:30;;;;;;;26.60;18.00;;;;;;;-0.51;87.74;97391.15;86555;1284;22583;-72
2022/11/18 05:05:33;;;;;;;27.00;18.60;;;;;;;-0.52;87.85;97390.65;86341;1288;100001;-72
2022/11/18 05:07:38;;;;;;;25.50;18.80;;;;;;;-0.53;87.79;97394.46;86492;1281;22544;-72
2022/11/18 05:09:39;;;;;;;27.30;18.70;;;;;;;-0.54;87.80;97396.21;86425;1288;22677;-72
2022/11/18 05:14:02;;;;;;;31.00;21.10;;;;;;;-0.50;87.93;97393.88;86569;1281;24250;-72
2022/11/18 05:16:04;;;;;;;31.40;19.70;;;;;;;-0.51;88.00;97396.14;86529;1289;24253;-72
2022/11/18 05:18:12;;;;;;;29.70;19.50;;;;;;;-0.47;87.83;97402.59;86386;1281;98375;-73
2022/11/18 05:20:14;;;;;;;24.70;18.10;;;;;;;-0.45;87.82;97410.48;86380;1281;22638;-71
2022/11/18 05:22:16;;;;;;;26.00;17.80;;;;;;;-0.44;87.86;97409.94;86470;1284;22588;-73
2022/11/18 05:24:18;;;;;;;28.00;18.40;;;;;;;-0.44;87.84;97408.04;86443;1281;98554;-72
2022/11/18 05:26:20;;;;;;;34.90;19.60;;;;;;;-0.44;87.88;97412.69;86551;1285;22710;-73
2022/11/18 05:28:22;;;;;;;29.30;19.00;;;;;;;-0.46;87.90;97415.50;86698;1295;23865;-73
2022/11/18 05:30:23;;;;;;;28.10;17.50;;;;;;;-0.47;87.92;97417.23;86529;1295;98507;-72
2022/11/18 05:32:25;;;;;;;29.90;17.70;;;;;;;-0.48;87.76;97423.66;86479;1286;22442;-73
2022/11/18 05:34:27;;;;;;;23.00;17.40;;;;;;;-0.53;87.71;97418.11;86562;1286;25385;-73
2022/11/18 05:36:29;;;;;;;27.50;17.60;;;;;;;-0.50;87.76;97421.49;86556;1278;99520;-73
2022/11/18 05:38:32;;;;;;;28.40;19.10;;;;;;;-0.52;87.74;97421.70;86544;1289;22557;-73
2022/11/18 05:40:34;;;;;;;31.50;19.60;;;;;;;-0.53;87.77;97420.19;86614;1282;22493;-74
2022/11/18 05:44:57;;;;;;;27.00;19.40;;;;;;;-0.55;87.72;97427.98;86691;1286;22486;-73
2022/11/18 05:46:59;;;;;;;28.30;19.30;;;;;;;-0.56;87.97;97421.11;86625;1281;22516;-74
2022/11/18 05:49:00;;;;;;;24.00;17.80;;;;;;;-0.56;87.82;97419.38;86649;1287;98507;-75
2022/11/18 05:51:02;;;;;;;26.60;18.00;;;;;;;-0.56;87.77;97423.02;86598;1281;22779;-75
2022/11/18 05:53:04;;;;;;;25.10;17.90;;;;;;;-0.58;87.96;97420.15;86745;1282;23065;-74
2022/11/18 05:55:07;;;;;;;28.10;17.70;;;;;;;-0.58;87.76;97420.16;86586;1295;98251;-73
2022/11/18 05:57:09;;;;;;;32.70;19.90;;;;;;;-0.60;87.88;97417.29;86650;1310;22763;-72
2022/11/18 05:59:12;;;;;;;32.00;19.70;;;;;;;-0.63;87.93;97416.50;86615;1295;101050;-73
2022/11/18 06:01:30;;;;;;;24.90;16.90;;;;;;;-0.65;87.75;97417.27;86738;1293;22663;-72
2022/11/18 06:03:35;;;;;;;29.70;18.20;;;;;;;-0.67;87.82;97421.78;86764;1288;22478;-72
2022/11/18 06:05:37;;;;;;;30.50;19.50;;;;;;;-0.68;88.04;97421.29;86780;1286;99654;-72
2022/11/18 06:07:42;;;;;;;34.20;20.20;;;;;;;-0.67;87.88;97425.95;86866;1296;22555;-73
2022/11/18 06:09:48;;;;;;;28.10;19.90;;;;;;;-0.68;87.80;97430.77;86917;1294;22502;-70
2022/11/18 06:11:55;;;;;;;26.40;17.50;;;;;;;-0.70;87.94;97431.69;86828;1278;100456;-72
2022/11/18 06:14:10;;;;;;;31.60;19.30;;;;;;;-0.69;87.91;97436.52;86711;1296;23006;-73
2022/11/18 06:16:12;;;;;;;39.60;20.20;;;;;;;-0.71;87.92;97437.40;87003;1294;25270;-73
2022/11/18 06:18:22;;;;;;;34.70;20.90;;;;;;;-0.69;87.99;97438.23;86920;1311;99319;-72
2022/11/18 06:20:24;;;;;;;25.10;16.90;;;;;;;-0.70;87.97;97446.70;87287;1310;24422;-72
2022/11/18 06:22:26;;;;;;;28.10;19.10;;;;;;;-0.71;88.11;97447.59;87203;1310;22506;-72
2022/11/18 06:24:28;;;;;;;29.30;18.20;;;;;;;-0.70;87.95;97452.05;87234;1310;98474;-72
2022/11/18 06:26:30;;;;;;;35.30;21.00;;;;;;;-0.70;87.98;97447.73;87042;1310;22483;-72
2022/11/18 06:28:32;;;;;;;28.90;19.60;;;;;;;-0.68;88.00;97452.84;87166;1310;22559;-72
2022/11/18 06:30:34;;;;;;;36.80;20.20;;;;;;;-0.67;87.97;97459.56;86891;1310;98522;-72
2022/11/18 06:32:36;;;;;;;34.00;18.70;;;;;;;-0.64;88.08;97460.86;87061;1287;22507;-71
2022/11/18 06:34:37;;;;;;;27.80;19.40;;;;;;;-0.63;88.19;97459.27;87366;1288;22519;-72
2022/11/18 06:36:39;;;;;;;29.30;19.20;;;;;;;-0.63;88.08;97456.00;86776;1288;100326;-71
2022/11/18 06:38:42;;;;;;;22.20;16.50;;;;;;;-0.63;87.91;97455.98;86701;1295;23163;-72
2022/11/18 06:40:44;;;;;;;31.10;19.60;;;;;;;-0.64;87.90;97457.08;86863;1310;22535;-72
2022/11/18 06:45:07;;;;;;;30.90;19.20;;;;;;;-0.64;88.07;97461.90;86932;1310;24260;-73
2022/11/18 06:47:09;;;;;;;25.80;17.00;;;;;;;-0.65;87.97;97461.41;86936;1295;98762;-74
2022/11/18 06:49:12;;;;;;;27.20;17.60;;;;;;;-0.66;87.94;97463.84;86924;1294;25351;-72
2022/11/18 06:51:14;;;;;;;24.90;18.10;;;;;;;-0.66;88.13;97468.51;86941;1288;24257;-71
2022/11/18 06:53:15;;;;;;;29.20;18.00;;;;;;;-0.64;88.14;97475.02;86799;1310;98927;-73
2022/11/18 06:55:18;;;;;;;30.60;18.60;;;;;;;-0.64;87.98;97476.02;86922;1306;22552;-72
2022/11/18 06:57:19;;;;;;;25.30;18.00;;;;;;;-0.63;87.98;97477.91;87005;1295;22486;-72
2022/11/18 06:59:23;;;;;;;27.30;17.10;;;;;;;-0.62;88.09;97479.09;86777;1288;99072;-72
2022/11/18 07:01:27;;;;;;;26.20;18.00;;;;;;;-0.62;88.19;97478.92;86943;1310;22724;-73
2022/11/18 07:03:29;;;;;;;33.60;20.00;;;;;;;-0.63;88.13;97481.19;86903;1309;25220;-72
2022/11/18 07:05:31;;;;;;;28.50;18.30;;;;;;;-0.64;88.23;97482.06;86722;1285;100468;-71
2022/11/18 07:07:35;;;;;;;29.50;18.30;;;;;;;-0.63;88.10;97486.35;86531;1287;22486;-73
2022/11/18 07:09:37;;;;;;;26.70;18.50;;;;;;;-0.66;88.14;97482.98;86771;1291;22470;-72
2022/11/18 07:11:40;;;;;;;29.40;19.30;;;;;;;-0.61;88.22;97493.55;86637;1289;99978;-73
2022/11/18 07:13:42;;;;;;;34.30;19.40;;;;;;;-0.61;88.19;97493.89;86617;1281;23352;-74
2022/11/18 07:15:44;;;;;;;30.70;18.50;;;;;;;-0.60;88.12;97496.28;86795;1277;22520;-73
2022/11/18 07:17:46;;;;;;;27.20;17.50;;;;;;;-0.61;88.18;97496.47;86620;1281;98504;-72
2022/11/18 07:19:48;;;;;;;27.80;17.70;;;;;;;-0.62;88.16;97486.67;86586;1288;22621;-73
2022/11/18 07:21:50;;;;;;;26.40;17.10;;;;;;;-0.65;88.20;97483.66;86796;1278;25388;-73
2022/11/18 07:23:52;;;;;;;27.50;17.30;;;;;;;-0.69;88.26;97478.07;86558;1287;99724;-74
2022/11/18 07:25:55;;;;;;;31.70;17.50;;;;;;;-0.67;88.05;97478.38;86608;1288;22569;-74
2022/11/18 07:27:57;;;;;;;27.80;16.90;;;;;;;-0.69;88.04;97478.06;86449;1288;22536;-73
2022/11/18 07:29:59;;;;;;;23.70;16.30;;;;;;;-0.70;88.13;97483.09;86559;1288;99593;-73
2022/11/18 07:32:01;;;;;;;30.00;18.10;;;;;;;-0.70;88.10;97483.61;86722;1278;25923;-75
2022/11/18 07:34:02;;;;;;;28.60;18.30;;;;;;;-0.70;88.12;97483.94;86762;1278;23828;-74
2022/11/18 07:36:07;;;;;;;29.10;16.50;;;;;;;-0.70;88.09;97486.55;86663;1287;99471;-73
2022/11/18 07:38:09;;;;;;;32.50;18.60;;;;;;;-0.71;88.05;97487.26;86704;1280;22700;-73
2022/11/18 07:40:11;;;;;;;29.80;18.00;;;;;;;-0.71;88.19;97486.58;86704;1284;22622;-73
2022/11/18 07:42:13;;;;;;;29.90;19.40;;;;;;;-0.71;88.22;97479.16;86690;1287;99743;-74
2022/11/18 07:44:16;;;;;;;27.00;19.30;;;;;;;-0.75;88.07;97468.23;86538;1288;215475;-73
2022/11/18 07:46:20;;;;;;;37.70;20.20;;;;;;;-0.74;88.15;97465.28;86815;1278;23756;-73
2022/11/18 07:48:22;;;;;;;28.50;18.50;;;;;;;-0.74;88.23;97460.79;86698;1288;100134;-74
2022/11/18 07:50:24;;;;;;;32.70;19.90;;;;;;;-0.74;88.06;97460.61;86742;1278;23490;-74
2022/11/18 07:52:25;;;;;;;30.40;18.50;;;;;;;-0.75;88.23;97457.02;86746;1278;22441;-74
2022/11/18 07:54:27;;;;;;;29.60;18.10;;;;;;;-0.74;88.24;97452.52;86650;1285;112297;-74
2022/11/18 07:56:29;;;;;;;24.40;17.10;;;;;;;-0.74;88.28;97456.64;86741;1278;23707;-75
2022/11/18 07:58:30;;;;;;;27.10;17.50;;;;;;;-0.75;88.27;97461.83;86518;1281;22478;-72
2022/11/18 08:00:32;;;;;;;25.50;16.70;;;;;;;-0.75;88.21;97462.19;86538;1278;99652;-72
2022/11/18 08:02:34;;;;;;;26.90;17.10;;;;;;;-0.75;88.22;97459.78;86660;1278;26612;-72
2022/11/18 08:04:36;;;;;;;34.70;18.30;;;;;;;-0.75;88.33;97456.16;86490;1286;22507;-73
2022/11/18 08:06:39;;;;;;;28.30;18.00;;;;;;;-0.75;88.10;97458.04;86425;1281;100093;-73
2022/11/18 08:08:41;;;;;;;29.70;18.50;;;;;;;-0.74;88.28;97463.36;86312;1284;25340;-72
2022/11/18 08:10:43;;;;;;;30.70;19.90;;;;;;;-0.74;88.24;97465.60;86410;1281;22553;-74
2022/11/18 08:12:44;;;;;;;25.80;18.40;;;;;;;-0.73;88.30;97470.08;86357;1289;98567;-72
2022/11/18 08:14:46;;;;;;;30.10;19.90;;;;;;;-0.73;88.31;97470.06;86456;1281;25304;-72
2022/11/18 08:16:48;;;;;;;36.00;21.60;;;;;;;-0.71;88.28;97472.45;86538;1285;24289;-73
2022/11/18 08:18:51;;;;;;;26.60;18.60;;;;;;;-0.71;88.30;97474.83;86494;1282;98405;-73
2022/11/18 08:20:53;;;;;;;26.70;18.10;;;;;;;-0.72;88.21;97471.95;86642;1282;22615;-72
2022/11/18 08:22:55;;;;;;;32.60;20.30;;;;;;;-0.74;88.26;97470.08;86557;1281;22530;-73
2022/11/18 08:24:57;;;;;;;29.60;19.00;;;;;;;-0.74;88.15;97470.79;87047;1286;98668;-74
2022/11/18 08:26:59;;;;;;;31.00;18.60;;;;;;;-0.75;88.25;97473.24;87214;1285;22481;-72
2022/11/18 08:29:01;;;;;;;25.30;17.40;;;;;;;-0.75;88.25;97476.00;86631;1285;23810;-73
2022/11/18 08:31:14;;;;;;;25.10;17.50;;;;;;;-0.76;88.28;97474.46;86627;1278;99825;-74
2022/11/18 08:33:16;;;;;;;27.70;18.40;;;;;;;-0.76;88.23;97475.52;86725;1278;22613;-74
2022/11/18 08:35:17;;;;;;;33.70;19.10;;;;;;;-0.77;88.12;97474.83;86376;1288;99763;-74
2022/11/18 08:37:19;;;;;;;27.90;19.00;;;;;;;-0.77;88.24;97475.18;86556;1287;24019;-73
2022/11/18 08:39:21;;;;;;;35.60;19.50;;;;;;;-0.77;88.31;97478.10;86682;1286;24587;-73
2022/11/18 08:41:37;;;;;;;28.60;20.00;;;;;;;-0.76;88.30;97479.96;86581;1288;99659;-73
2022/11/18 08:43:39;;;;;;;33.30;19.40;;;;;;;-0.75;88.30;97483.75;86621;1295;22600;-73
2022/11/18 08:45:41;;;;;;;24.30;18.00;;;;;;;-0.76;88.21;97484.63;86647;1285;22588;-73
2022/11/18 08:47:43;;;;;;;31.00;18.50;;;;;;;-0.75;88.26;97488.75;86377;1285;99880;-74
2022/11/18 08:49:44;;;;;;;28.30;18.10;;;;;;;-0.75;88.24;97490.98;86679;1286;25409;-71
2022/11/18 08:51:46;;;;;;;31.00;19.90;;;;;;;-0.72;88.28;97495.39;86383;1287;23726;-72
2022/11/18 08:53:48;;;;;;;31.90;20.70;;;;;;;-0.70;88.37;97493.45;86498;1286;99512;-72
2022/11/18 08:55:57;;;;;;;32.50;19.40;;;;;;;-0.69;88.29;97488.59;86623;1285;22531;-73
2022/11/18 08:57:59;;;;;;;30.60;18.50;;;;;;;-0.67;88.11;97488.70;86520;1285;24292;-72
2022/11/18 09:00:04;;;;;;;29.50;19.10;;;;;;;-0.66;88.36;97484.20;86352;1285;100462;-73
2022/11/18 09:02:13;;;;;;;24.30;16.40;;;;;;;-0.65;88.15;97482.11;86689;1289;26484;-73
2022/11/18 09:04:15;;;;;;;27.30;16.80;;;;;;;-0.66;88.24;97489.20;86536;1287;22468;-72
2022/11/18 09:06:20;;;;;;;23.90;16.40;;;;;;;-0.65;88.17;97496.42;86503;1278;99694;-74
2022/11/18 09:08:25;;;;;;;24.90;17.80;;;;;;;-0.64;88.24;97505.53;86688;1278;23058;-73
2022/11/18 09:10:27;;;;;;;25.20;17.20;;;;;;;-0.64;88.11;97506.05;86533;1281;23188;-72
2022/11/18 09:12:29;;;;;;;23.30;16.90;;;;;;;-0.63;88.14;97504.12;86275;1288;98790;-73
2022/11/18 09:14:31;;;;;;;29.50;20.30;;;;;;;-0.61;88.22;97497.52;86313;1291;22514;-73
2022/11/18 09:16:33;;;;;;;37.20;17.70;;;;;;;-0.59;88.22;97498.48;86462;1288;22481;-74
2022/11/18 09:18:34;;;;;;;;;;;;;;;-0.56;88.15;97491.17;86283;1285;99918;-72
2022/11/18 09:20:35;;;;;;;;;;;;;;;-0.55;88.31;97491.81;86522;1285;25207;-71
2022/11/18 09:22:38;;;;;;;26.00;17.40;;;;;;;-0.56;88.09;97492.39;86451;1289;25278;-72
2022/11/18 09:24:42;;;;;;;23.40;15.60;;;;;;;-0.58;88.01;97501.05;86348;1287;99067;-72
2022/11/18 09:26:44;;;;;;;23.90;15.90;;;;;;;-0.63;88.03;97504.29;86481;1278;22421;-71
2022/11/18 09:28:46;;;;;;;25.90;16.80;;;;;;;-0.59;88.02;97513.84;86401;1284;22589;-73
2022/11/18 09:30:48;;;;;;;23.20;15.90;;;;;;;-0.58;87.93;97509.17;86479;1278;99864;-73
2022/11/18 09:32:50;;;;;;;22.60;16.40;;;;;;;-0.59;87.92;97509.03;86450;1281;23959;-73
2022/11/18 09:34:53;;;;;;;24.90;16.70;;;;;;;-0.62;88.02;97505.30;86636;1293;24149;-72
2022/11/18 09:36:55;;;;;;;27.60;18.00;;;;;;;-0.61;87.96;97509.41;86473;1282;99729;-71
2022/11/18 09:38:58;;;;;;;24.70;16.10;;;;;;;-0.61;87.85;97512.35;86565;1287;22688;-73
2022/11/18 09:41:23;;;;;;;30.40;17.70;;;;;;;-0.60;87.88;97510.77;86488;1287;22441;-72
2022/11/18 09:43:46;;;;;;;24.70;16.00;;;;;;;-0.60;87.99;97508.54;86471;1286;22463;-71
2022/11/18 09:45:55;;;;;;;26.50;15.00;;;;;;;-0.61;88.00;97506.66;86575;1278;22477;-72
2022/11/18 09:47:59;;;;;;;22.40;15.70;;;;;;;-0.63;87.96;97501.69;86397;1288;99966;-72
2022/11/18 09:50:14;;;;;;;34.60;16.80;;;;;;;-0.63;87.91;97507.58;86504;1285;23604;-72